createdAt,value
2023-02-27T00:00:03.309Z,1015.12
2023-02-27T00:05:02.964Z,1015.18
2023-02-27T00:10:07.222Z,1015.32
2023-02-27T00:15:03.142Z,1015.42
2023-02-27T00:20:03.044Z,1015.46
2023-02-27T00:25:03.321Z,1015.5
2023-02-27T00:30:03.154Z,1015.57
2023-02-27T00:35:08.624Z,1015.75
2023-02-27T00:40:03.138Z,1015.84
2023-02-27T00:45:03.033Z,1015.97
2023-02-27T00:50:03.015Z,1016.03
2023-02-27T00:55:02.988Z,1016.07
2023-02-27T01:00:03.114Z,1016.2
2023-02-27T01:05:02.971Z,1016.32
2023-02-27T01:10:04.182Z,1016.35
2023-02-27T01:15:02.932Z,1016.38
2023-02-27T01:20:03.080Z,1016.4
2023-02-27T01:25:03.108Z,1016.45
2023-02-27T01:30:03.523Z,1016.45
2023-02-27T01:35:03.148Z,1016.52
2023-02-27T01:40:03.060Z,1016.59
2023-02-27T01:45:03.026Z,1016.57
2023-02-27T01:50:03.056Z,1016.68
2023-02-27T01:55:03.233Z,1016.74
2023-02-27T02:00:02.998Z,1016.82
2023-02-27T02:05:02.967Z,1016.99
2023-02-27T02:10:03.158Z,1017.01
2023-02-27T02:15:02.944Z,1017.06
2023-02-27T02:20:03.333Z,1017.02
2023-02-27T02:25:02.953Z,1017.06
2023-02-27T02:30:03.124Z,1017.08
2023-02-27T02:35:02.887Z,1017.08
2023-02-27T02:40:03.004Z,1017.08
2023-02-27T02:45:02.891Z,1017.04
2023-02-27T02:50:03.093Z,1016.89
2023-02-27T02:55:02.860Z,1016.87
2023-02-27T03:00:03.064Z,1016.87
2023-02-27T03:05:02.931Z,1016.87
2023-02-27T03:10:03.104Z,1016.81
2023-02-27T03:15:04.046Z,1016.69
2023-02-27T03:20:02.979Z,1016.58
2023-02-27T03:25:03.316Z,1016.46
2023-02-27T03:30:02.989Z,1016.39
2023-02-27T03:35:02.983Z,1016.36
2023-02-27T03:40:03.047Z,1016.32
2023-02-27T03:45:03.091Z,1016.31
2023-02-27T03:50:03.056Z,1016.38
2023-02-27T03:55:02.960Z,1016.35
2023-02-27T04:00:03.026Z,1016.32
2023-02-27T04:05:03.101Z,1016.26
2023-02-27T04:10:03.865Z,1016.26
2023-02-27T04:15:03.018Z,1016.39
2023-02-27T04:20:02.973Z,1016.29
2023-02-27T04:25:02.955Z,1016.07
2023-02-27T04:30:03.084Z,1016.0
2023-02-27T04:35:03.019Z,1015.95
2023-02-27T04:40:03.070Z,1015.9
2023-02-27T04:45:03.057Z,1015.88
2023-02-27T04:50:02.961Z,1015.91
2023-02-27T04:55:03.046Z,1015.82
2023-02-27T05:00:03.101Z,1015.75
2023-02-27T05:05:02.966Z,1015.67
2023-02-27T05:10:03.042Z,1015.68
2023-02-27T05:15:02.920Z,1015.67
2023-02-27T05:20:02.983Z,1015.66
2023-02-27T05:25:02.919Z,1015.47
2023-02-27T05:30:03.041Z,1015.4
2023-02-27T05:35:02.944Z,1015.37
2023-02-27T05:40:02.995Z,1015.34
2023-02-27T05:45:03.051Z,1015.39
2023-02-27T05:50:03.131Z,1015.42
2023-02-27T05:55:02.883Z,1015.38
2023-02-27T06:00:03.125Z,1015.34
2023-02-27T06:05:02.985Z,1015.32
2023-02-27T06:10:03.003Z,1015.33
2023-02-27T06:15:02.925Z,1015.34
2023-02-27T06:20:03.059Z,1015.29
2023-02-27T06:25:02.919Z,1015.27
2023-02-27T06:30:02.990Z,1015.22
2023-02-27T06:35:02.924Z,1015.19
2023-02-27T06:40:03.052Z,1015.16
2023-02-27T06:45:02.929Z,1015.18
2023-02-27T06:50:03.043Z,1015.01
2023-02-27T06:55:03.100Z,1014.82
2023-02-27T07:00:03.024Z,1014.71
2023-02-27T07:05:03.206Z,1014.69
2023-02-27T07:10:03.072Z,1014.89
2023-02-27T07:15:02.933Z,1015.08
2023-02-27T07:20:02.953Z,1015.11
2023-02-27T07:25:03.120Z,1015.05
2023-02-27T07:30:02.972Z,1014.97
2023-02-27T07:35:02.950Z,1014.98
2023-02-27T07:40:02.904Z,1014.94
2023-02-27T07:45:02.921Z,1014.92
2023-02-27T07:50:04.696Z,1014.9
2023-02-27T07:55:02.921Z,1014.91
2023-02-27T08:00:03.012Z,1014.85
2023-02-27T08:05:03.001Z,1015.03
2023-02-27T08:10:03.084Z,1015.07
2023-02-27T08:15:02.934Z,1014.99
2023-02-27T08:20:03.143Z,1014.93
2023-02-27T08:25:02.923Z,1014.92
2023-02-27T08:30:03.012Z,1014.96
2023-02-27T08:35:02.984Z,1015.04
2023-02-27T08:40:02.997Z,1015.0
2023-02-27T08:45:02.861Z,1015.13
2023-02-27T08:50:02.969Z,1015.13
2023-02-27T08:55:02.936Z,1015.18
2023-02-27T09:00:03.126Z,1015.29
2023-02-27T09:05:02.975Z,1015.3
2023-02-27T09:10:02.976Z,1015.43
2023-02-27T09:15:03.137Z,1015.5
2023-02-27T09:20:03.073Z,1015.54
2023-02-27T09:25:02.952Z,1015.57
2023-02-27T09:30:03.114Z,1015.47
2023-02-27T09:35:02.931Z,1015.42
2023-02-27T09:40:03.026Z,1015.47
2023-02-27T09:45:05.538Z,1015.51
2023-02-27T09:50:02.922Z,1015.75
2023-02-27T09:55:02.917Z,1016.18
2023-02-27T10:00:03.011Z,1016.31
2023-02-27T10:05:02.971Z,1016.35
2023-02-27T10:10:03.010Z,1016.44
2023-02-27T10:15:02.913Z,1016.51
2023-02-27T10:20:03.021Z,1016.45
2023-02-27T10:25:02.948Z,1016.54
2023-02-27T10:30:03.027Z,1016.6
2023-02-27T10:35:03.082Z,1016.62
2023-02-27T10:40:03.018Z,1016.75
2023-02-27T10:45:07.945Z,1016.91
2023-02-27T10:50:02.996Z,1016.98
2023-02-27T10:55:02.965Z,1016.94
2023-02-27T11:00:02.990Z,1016.84
2023-02-27T11:05:02.977Z,1016.78
2023-02-27T11:10:02.981Z,1016.85
2023-02-27T11:15:02.918Z,1016.91
2023-02-27T11:20:03.274Z,1016.97
2023-02-27T11:25:04.218Z,1017.1
2023-02-27T11:30:03.085Z,1017.16
2023-02-27T11:35:02.913Z,1017.14
2023-02-27T11:40:02.919Z,1017.23
2023-02-27T11:45:02.938Z,1017.4
2023-02-27T11:50:03.006Z,1017.52
2023-02-27T11:55:04.019Z,1017.67
2023-02-27T12:00:03.185Z,1017.76
2023-02-27T12:05:03.039Z,1017.78
2023-02-27T12:10:03.240Z,1017.83
2023-02-27T12:15:03.044Z,1017.92
2023-02-27T12:20:02.970Z,1017.99
2023-02-27T12:25:02.927Z,1018.06
2023-02-27T12:30:02.990Z,1018.06
2023-02-27T12:35:02.958Z,1018.15
2023-02-27T12:40:03.074Z,1018.19
2023-02-27T12:45:02.932Z,1018.25
2023-02-27T12:50:03.045Z,1018.25
2023-02-27T12:55:02.922Z,1018.31
2023-02-27T13:00:03.027Z,1018.31
2023-02-27T13:05:02.961Z,1018.35
2023-02-27T13:10:02.970Z,1018.4
2023-02-27T13:15:04.106Z,1018.4
2023-02-27T13:20:03.053Z,1018.36
2023-02-27T13:25:02.986Z,1018.41
2023-02-27T13:30:03.009Z,1018.45
2023-02-27T13:35:02.932Z,1018.58
2023-02-27T13:40:03.067Z,1018.61
2023-02-27T13:45:03.156Z,1018.67
2023-02-27T13:50:03.010Z,1018.66
2023-02-27T13:55:11.709Z,1018.72
2023-02-27T14:00:03.089Z,1018.76
2023-02-27T14:05:03.625Z,1018.73
2023-02-27T14:10:03.018Z,1018.68
2023-02-27T14:15:03.043Z,1018.74
2023-02-27T14:20:02.973Z,1018.8
2023-02-27T14:25:03.543Z,1018.68
2023-02-27T14:30:03.096Z,1018.67
2023-02-27T14:35:02.988Z,1018.67
2023-02-27T14:40:03.419Z,1018.66
2023-02-27T14:45:02.930Z,1018.64
2023-02-27T14:50:03.372Z,1018.63
2023-02-27T14:55:02.997Z,1018.64
2023-02-27T15:00:03.173Z,1018.63
2023-02-27T15:05:02.976Z,1018.61
2023-02-27T15:10:04.447Z,1018.58
2023-02-27T15:15:03.009Z,1018.64
2023-02-27T15:20:03.107Z,1018.71
2023-02-27T15:25:02.878Z,1018.71
2023-02-27T15:30:03.036Z,1018.68
2023-02-27T15:35:03.170Z,1018.65
2023-02-27T15:40:03.203Z,1018.62
2023-02-27T15:45:02.953Z,1018.57
2023-02-27T15:50:03.071Z,1018.57
2023-02-27T15:55:02.994Z,1018.66
2023-02-27T16:00:03.005Z,1018.66
2023-02-27T16:05:02.916Z,1018.65
2023-02-27T16:10:03.154Z,1018.63
2023-02-27T16:15:02.934Z,1018.59
2023-02-27T16:20:03.017Z,1018.53
2023-02-27T16:25:03.200Z,1018.5
2023-02-27T16:30:03.202Z,1018.53
2023-02-27T16:35:02.948Z,1018.49
2023-02-27T16:40:03.081Z,1018.43
2023-02-27T16:45:02.910Z,1018.3
2023-02-27T16:50:04.006Z,1018.19
2023-02-27T16:55:03.076Z,1018.21
2023-02-27T17:00:02.999Z,1018.3
2023-02-27T17:05:03.063Z,1018.42
2023-02-27T17:10:03.000Z,1018.39
2023-02-27T17:15:02.914Z,1018.37
2023-02-27T17:20:03.134Z,1018.34
2023-02-27T17:25:02.933Z,1018.39
2023-02-27T17:30:03.040Z,1018.29
2023-02-27T17:35:02.997Z,1018.26
2023-02-27T17:40:03.042Z,1018.22
2023-02-27T17:45:02.891Z,1018.17
2023-02-27T17:50:03.039Z,1018.13
2023-02-27T17:55:02.963Z,1018.17
2023-02-27T18:00:03.119Z,1018.26
2023-02-27T18:05:02.898Z,1018.26
2023-02-27T18:10:03.005Z,1018.28
2023-02-27T18:15:02.916Z,1018.31
2023-02-27T18:20:03.020Z,1018.24
2023-02-27T18:25:03.038Z,1018.22
2023-02-27T18:30:03.078Z,1018.19
2023-02-27T18:35:02.931Z,1018.14
2023-02-27T18:40:03.072Z,1018.18
2023-02-27T18:45:02.947Z,1018.18
2023-02-27T18:50:02.975Z,1018.14
2023-02-27T18:55:02.946Z,1018.05
2023-02-27T19:00:03.094Z,1018.07
2023-02-27T19:05:03.085Z,1018.2
2023-02-27T19:10:02.970Z,1018.35
2023-02-27T19:15:02.895Z,1018.4
2023-02-27T19:20:03.057Z,1018.39
2023-02-27T19:25:02.929Z,1018.3
2023-02-27T19:30:02.988Z,1018.17
2023-02-27T19:35:03.038Z,1017.99
2023-02-27T19:40:03.027Z,1017.93
2023-02-27T19:45:02.938Z,1017.95
2023-02-27T19:50:03.090Z,1017.91
2023-02-27T19:55:02.987Z,1017.82
2023-02-27T20:00:03.102Z,1017.84
2023-02-27T20:05:02.941Z,1017.78
2023-02-27T20:10:04.009Z,1017.69
2023-02-27T20:15:02.943Z,1017.58
2023-02-27T20:20:03.267Z,1017.45
2023-02-27T20:25:03.019Z,1017.4
2023-02-27T20:30:03.034Z,1017.34
2023-02-27T20:35:02.991Z,1017.25
2023-02-27T20:40:03.126Z,1017.07
2023-02-27T20:45:02.869Z,1017.0
2023-02-27T20:50:03.047Z,1016.9
2023-02-27T20:55:03.136Z,1016.94
2023-02-27T21:00:03.042Z,1016.96
2023-02-27T21:05:03.168Z,1016.82
2023-02-27T21:10:03.130Z,1016.63
2023-02-27T21:15:02.989Z,1016.59
2023-02-27T21:20:05.038Z,1016.57
2023-02-27T21:25:02.927Z,1016.52
2023-02-27T21:30:03.005Z,1016.48
2023-02-27T21:35:02.931Z,1016.53
2023-02-27T21:40:03.043Z,1016.55
2023-02-27T21:45:02.959Z,1016.46
2023-02-27T21:50:02.994Z,1016.34
2023-02-27T21:55:02.930Z,1016.17
2023-02-27T22:00:03.047Z,1016.04
2023-02-27T22:05:02.948Z,1015.99
2023-02-27T22:10:03.193Z,1015.92
2023-02-27T22:15:03.037Z,1015.83
2023-02-27T22:20:03.000Z,1015.73
2023-02-27T22:25:02.967Z,1015.72
2023-02-27T22:30:03.144Z,1015.69
2023-02-27T22:35:02.995Z,1015.75
2023-02-27T22:40:03.074Z,1015.72
2023-02-27T22:45:02.994Z,1015.81
2023-02-27T22:50:03.081Z,1015.9
2023-02-27T22:55:04.150Z,1015.94
2023-02-27T23:00:03.025Z,1016.06
2023-02-27T23:05:03.052Z,1016.12
2023-02-27T23:10:03.011Z,1016.15
2023-02-27T23:15:03.109Z,1016.15
2023-02-27T23:20:03.022Z,1016.24
2023-02-27T23:25:02.956Z,1016.29
2023-02-27T23:30:03.116Z,1016.36
2023-02-27T23:35:02.988Z,1016.49
2023-02-27T23:40:04.082Z,1016.54
2023-02-27T23:45:03.051Z,1016.62
2023-02-27T23:50:03.170Z,1016.71
2023-02-27T23:55:02.965Z,1016.81
